Somersham, United Kingdom
Current Conditions -  °F | °C
As of 3:50 PM on Sunday 21 Dec 2014 (Local Time) from EGSC Reporting Station
Broken Clouds Broken Clouds  
Wind Chill: 50°   Ceiling: 1700
Heat Index: 50°   Visibility: 6mi
Dew Point: 45°   Wind: 23mph
Humidity: 82%   Direction: 220°SW
Pressure: 30.15"   Gusts: NA
Location:  52.38°N, 0°W
Report Text: EGSC 211550Z 22020KT 190V250 9999 BKN017 10/07 Q1021
Loading
Personal Weather Stations






























Interactive Weather Map New forecast layout! Learn more

10-Day Weather Forecast

Advertisements
Track Severe Weather on mobile